sensor_id;sensor_type;location;lat;lon;timestamp;P1;durP1;ratioP1;P2;durP2;ratioP2
48263;SDS011;34086;51.076;13.722;2023-09-07T00:00:24;13.15;;;11.75;;
48263;SDS011;34086;51.076;13.722;2023-09-07T00:01:25;13.70;;;11.38;;
48263;SDS011;34086;51.076;13.722;2023-09-07T00:02:25;13.80;;;11.55;;
48263;SDS011;34086;51.076;13.722;2023-09-07T00:03:26;13.15;;;11.75;;
48263;SDS011;34086;51.076;13.722;2023-09-07T00:04:27;14.23;;;11.57;;
48263;SDS011;34086;51.076;13.722;2023-09-07T00:05:27;13.65;;;11.50;;
48263;SDS011;34086;51.076;13.722;2023-09-07T00:06:28;15.15;;;11.85;;
48263;SDS011;34086;51.076;13.722;2023-09-07T00:07:28;12.70;;;11.23;;
48263;SDS011;34086;51.076;13.722;2023-09-07T00:08:29;14.02;;;11.80;;
48263;SDS011;34086;51.076;13.722;2023-09-07T00:09:30;14.98;;;11.95;;
48263;SDS011;34086;51.076;13.722;2023-09-07T00:10:32;12.98;;;11.57;;
48263;SDS011;34086;51.076;13.722;2023-09-07T00:11:35;14.55;;;11.52;;
48263;SDS011;34086;51.076;13.722;2023-09-07T00:12:35;13.23;;;10.98;;
48263;SDS011;34086;51.076;13.722;2023-09-07T00:13:39;15.32;;;11.82;;
48263;SDS011;34086;51.076;13.722;2023-09-07T00:14:39;16.42;;;11.75;;
48263;SDS011;34086;51.076;13.722;2023-09-07T00:15:40;17.75;;;11.70;;
48263;SDS011;34086;51.076;13.722;2023-09-07T00:16:41;14.43;;;11.55;;
48263;SDS011;34086;51.076;13.722;2023-09-07T00:17:42;15.43;;;11.85;;
48263;SDS011;34086;51.076;13.722;2023-09-07T00:18:42;13.95;;;11.45;;
48263;SDS011;34086;51.076;13.722;2023-09-07T00:19:43;14.35;;;12.02;;
48263;SDS011;34086;51.076;13.722;2023-09-07T00:20:44;13.63;;;11.23;;
48263;SDS011;34086;51.076;13.722;2023-09-07T00:21:44;14.35;;;11.65;;
48263;SDS011;34086;51.076;13.722;2023-09-07T00:22:45;13.65;;;11.02;;
48263;SDS011;34086;51.076;13.722;2023-09-07T00:23:45;12.77;;;11.13;;
48263;SDS011;34086;51.076;13.722;2023-09-07T00:24:46;13.73;;;11.32;;
48263;SDS011;34086;51.076;13.722;2023-09-07T00:25:46;12.57;;;10.70;;
48263;SDS011;34086;51.076;13.722;2023-09-07T00:26:47;13.52;;;11.05;;
48263;SDS011;34086;51.076;13.722;2023-09-07T00:27:48;13.65;;;11.80;;
48263;SDS011;34086;51.076;13.722;2023-09-07T00:28:48;16.23;;;11.98;;
48263;SDS011;34086;51.076;13.722;2023-09-07T00:29:49;13.75;;;11.15;;
48263;SDS011;34086;51.076;13.722;2023-09-07T00:30:50;12.98;;;11.18;;
48263;SDS011;34086;51.076;13.722;2023-09-07T00:31:50;14.60;;;11.73;;
48263;SDS011;34086;51.076;13.722;2023-09-07T00:32:51;14.40;;;10.98;;
48263;SDS011;34086;51.076;13.722;2023-09-07T00:33:52;14.20;;;11.40;;
48263;SDS011;34086;51.076;13.722;2023-09-07T00:34:52;12.80;;;10.90;;
48263;SDS011;34086;51.076;13.722;2023-09-07T00:35:53;15.73;;;11.55;;
48263;SDS011;34086;51.076;13.722;2023-09-07T00:36:53;14.60;;;11.45;;
48263;SDS011;34086;51.076;13.722;2023-09-07T00:37:54;13.55;;;11.20;;
48263;SDS011;34086;51.076;13.722;2023-09-07T00:38:54;14.35;;;11.38;;
48263;SDS011;34086;51.076;13.722;2023-09-07T00:39:55;14.00;;;10.60;;
48263;SDS011;34086;51.076;13.722;2023-09-07T00:40:56;13.60;;;11.15;;
48263;SDS011;34086;51.076;13.722;2023-09-07T00:41:56;12.95;;;10.98;;
48263;SDS011;34086;51.076;13.722;2023-09-07T00:42:58;14.63;;;11.27;;
48263;SDS011;34086;51.076;13.722;2023-09-07T00:43:59;15.13;;;11.45;;
48263;SDS011;34086;51.076;13.722;2023-09-07T00:44:59;13.18;;;10.77;;
48263;SDS011;34086;51.076;13.722;2023-09-07T00:46:00;12.55;;;10.85;;
48263;SDS011;34086;51.076;13.722;2023-09-07T00:47:01;12.77;;;11.43;;
48263;SDS011;34086;51.076;13.722;2023-09-07T00:48:02;16.88;;;11.85;;
48263;SDS011;34086;51.076;13.722;2023-09-07T00:49:03;12.63;;;11.15;;
48263;SDS011;34086;51.076;13.722;2023-09-07T00:50:04;13.30;;;11.50;;
48263;SDS011;34086;51.076;13.722;2023-09-07T00:51:07;11.95;;;10.48;;
48263;SDS011;34086;51.076;13.722;2023-09-07T00:52:08;13.63;;;11.48;;
48263;SDS011;34086;51.076;13.722;2023-09-07T00:53:13;13.02;;;10.90;;
48263;SDS011;34086;51.076;13.722;2023-09-07T00:54:15;15.45;;;11.32;;
48263;SDS011;34086;51.076;13.722;2023-09-07T00:55:16;15.73;;;11.80;;
48263;SDS011;34086;51.076;13.722;2023-09-07T00:56:17;12.35;;;10.75;;
48263;SDS011;34086;51.076;13.722;2023-09-07T00:57:18;12.65;;;11.23;;
48263;SDS011;34086;51.076;13.722;2023-09-07T00:58:19;13.52;;;11.18;;
48263;SDS011;34086;51.076;13.722;2023-09-07T00:59:20;12.48;;;11.18;;
48263;SDS011;34086;51.076;13.722;2023-09-07T01:00:21;11.95;;;10.73;;
48263;SDS011;34086;51.076;13.722;2023-09-07T01:01:22;12.77;;;10.90;;
48263;SDS011;34086;51.076;13.722;2023-09-07T01:02:23;12.98;;;11.55;;
48263;SDS011;34086;51.076;13.722;2023-09-07T01:03:24;14.38;;;11.40;;
48263;SDS011;34086;51.076;13.722;2023-09-07T01:04:24;13.43;;;11.10;;
48263;SDS011;34086;51.076;13.722;2023-09-07T01:05:38;13.13;;;11.32;;
48263;SDS011;34086;51.076;13.722;2023-09-07T01:06:45;14.38;;;11.27;;
48263;SDS011;34086;51.076;13.722;2023-09-07T01:07:53;13.57;;;11.68;;
48263;SDS011;34086;51.076;13.722;2023-09-07T01:08:57;14.48;;;11.00;;
48263;SDS011;34086;51.076;13.722;2023-09-07T01:10:04;12.45;;;11.05;;
48263;SDS011;34086;51.076;13.722;2023-09-07T01:11:12;13.57;;;11.30;;
48263;SDS011;34086;51.076;13.722;2023-09-07T01:12:14;14.90;;;11.93;;
48263;SDS011;34086;51.076;13.722;2023-09-07T01:13:16;13.95;;;12.15;;
48263;SDS011;34086;51.076;13.722;2023-09-07T01:14:16;14.15;;;11.88;;
48263;SDS011;34086;51.076;13.722;2023-09-07T01:15:17;14.60;;;11.68;;
48263;SDS011;34086;51.076;13.722;2023-09-07T01:16:17;15.65;;;12.15;;
48263;SDS011;34086;51.076;13.722;2023-09-07T01:17:21;14.77;;;11.70;;
48263;SDS011;34086;51.076;13.722;2023-09-07T01:18:22;13.23;;;11.88;;
48263;SDS011;34086;51.076;13.722;2023-09-07T01:19:24;14.40;;;11.30;;
48263;SDS011;34086;51.076;13.722;2023-09-07T01:20:25;14.50;;;11.88;;
48263;SDS011;34086;51.076;13.722;2023-09-07T01:21:26;16.85;;;11.73;;
48263;SDS011;34086;51.076;13.722;2023-09-07T01:22:34;13.40;;;11.48;;
48263;SDS011;34086;51.076;13.722;2023-09-07T01:23:35;13.30;;;11.90;;
48263;SDS011;34086;51.076;13.722;2023-09-07T01:24:38;13.30;;;11.60;;
48263;SDS011;34086;51.076;13.722;2023-09-07T01:25:40;15.43;;;11.70;;
48263;SDS011;34086;51.076;13.722;2023-09-07T01:26:42;13.63;;;11.15;;
48263;SDS011;34086;51.076;13.722;2023-09-07T01:27:43;14.90;;;11.80;;
48263;SDS011;34086;51.076;13.722;2023-09-07T01:28:44;14.05;;;11.93;;
48263;SDS011;34086;51.076;13.722;2023-09-07T01:29:45;13.07;;;11.27;;
48263;SDS011;34086;51.076;13.722;2023-09-07T01:30:45;15.40;;;11.93;;
48263;SDS011;34086;51.076;13.722;2023-09-07T01:31:47;14.40;;;12.23;;
48263;SDS011;34086;51.076;13.722;2023-09-07T01:32:48;13.02;;;11.52;;
48263;SDS011;34086;51.076;13.722;2023-09-07T01:33:49;14.00;;;11.32;;
48263;SDS011;34086;51.076;13.722;2023-09-07T01:34:50;13.48;;;11.65;;
48263;SDS011;34086;51.076;13.722;2023-09-07T01:35:50;15.55;;;11.85;;
48263;SDS011;34086;51.076;13.722;2023-09-07T01:36:51;16.92;;;12.07;;
48263;SDS011;34086;51.076;13.722;2023-09-07T01:37:52;14.45;;;12.27;;
48263;SDS011;34086;51.076;13.722;2023-09-07T01:38:52;13.32;;;11.60;;
48263;SDS011;34086;51.076;13.722;2023-09-07T01:39:53;14.38;;;11.45;;
48263;SDS011;34086;51.076;13.722;2023-09-07T01:40:53;13.48;;;11.98;;
48263;SDS011;34086;51.076;13.722;2023-09-07T01:41:54;14.63;;;12.35;;
48263;SDS011;34086;51.076;13.722;2023-09-07T01:42:54;13.32;;;11.77;;
48263;SDS011;34086;51.076;13.722;2023-09-07T01:43:55;13.82;;;12.35;;
48263;SDS011;34086;51.076;13.722;2023-09-07T01:44:56;14.15;;;12.00;;
48263;SDS011;34086;51.076;13.722;2023-09-07T01:45:56;15.10;;;12.45;;
48263;SDS011;34086;51.076;13.722;2023-09-07T01:46:58;13.75;;;12.35;;
48263;SDS011;34086;51.076;13.722;2023-09-07T01:47:59;14.55;;;11.98;;
48263;SDS011;34086;51.076;13.722;2023-09-07T01:49:00;13.95;;;11.93;;
48263;SDS011;34086;51.076;13.722;2023-09-07T01:50:00;18.75;;;12.80;;
48263;SDS011;34086;51.076;13.722;2023-09-07T01:51:01;14.38;;;11.85;;
48263;SDS011;34086;51.076;13.722;2023-09-07T01:52:02;15.23;;;11.80;;
48263;SDS011;34086;51.076;13.722;2023-09-07T01:53:03;14.90;;;12.43;;
48263;SDS011;34086;51.076;13.722;2023-09-07T01:54:05;15.48;;;12.25;;
48263;SDS011;34086;51.076;13.722;2023-09-07T01:55:06;14.30;;;12.20;;
48263;SDS011;34086;51.076;13.722;2023-09-07T01:56:07;12.90;;;11.50;;
48263;SDS011;34086;51.076;13.722;2023-09-07T01:57:08;14.30;;;12.10;;
48263;SDS011;34086;51.076;13.722;2023-09-07T01:58:09;15.48;;;13.30;;
48263;SDS011;34086;51.076;13.722;2023-09-07T01:59:10;16.80;;;12.57;;
48263;SDS011;34086;51.076;13.722;2023-09-07T02:00:11;14.00;;;12.50;;
48263;SDS011;34086;51.076;13.722;2023-09-07T02:03:27;17.80;;;12.38;;
48263;SDS011;34086;51.076;13.722;2023-09-07T02:04:28;15.63;;;12.20;;
48263;SDS011;34086;51.076;13.722;2023-09-07T02:05:28;13.57;;;11.80;;
48263;SDS011;34086;51.076;13.722;2023-09-07T02:06:29;14.60;;;12.27;;
48263;SDS011;34086;51.076;13.722;2023-09-07T02:07:29;14.32;;;12.30;;
48263;SDS011;34086;51.076;13.722;2023-09-07T02:08:30;14.93;;;12.07;;
48263;SDS011;34086;51.076;13.722;2023-09-07T02:09:31;17.00;;;12.10;;
48263;SDS011;34086;51.076;13.722;2023-09-07T02:10:31;15.75;;;12.52;;
48263;SDS011;34086;51.076;13.722;2023-09-07T02:11:33;14.27;;;11.90;;
48263;SDS011;34086;51.076;13.722;2023-09-07T02:12:33;17.13;;;11.90;;
48263;SDS011;34086;51.076;13.722;2023-09-07T02:13:34;13.55;;;12.07;;
48263;SDS011;34086;51.076;13.722;2023-09-07T02:14:35;14.80;;;12.00;;
48263;SDS011;34086;51.076;13.722;2023-09-07T02:15:38;15.60;;;12.48;;
48263;SDS011;34086;51.076;13.722;2023-09-07T02:16:39;13.93;;;11.88;;
48263;SDS011;34086;51.076;13.722;2023-09-07T02:17:40;13.25;;;11.85;;
48263;SDS011;34086;51.076;13.722;2023-09-07T02:18:41;16.13;;;12.07;;
48263;SDS011;34086;51.076;13.722;2023-09-07T02:19:45;14.20;;;11.85;;
48263;SDS011;34086;51.076;13.722;2023-09-07T02:20:46;13.70;;;12.20;;
48263;SDS011;34086;51.076;13.722;2023-09-07T02:21:46;13.60;;;12.20;;
48263;SDS011;34086;51.076;13.722;2023-09-07T02:22:47;14.75;;;11.93;;
48263;SDS011;34086;51.076;13.722;2023-09-07T02:23:48;13.85;;;11.77;;
48263;SDS011;34086;51.076;13.722;2023-09-07T02:24:48;14.38;;;12.25;;
48263;SDS011;34086;51.076;13.722;2023-09-07T02:25:49;13.98;;;11.88;;
48263;SDS011;34086;51.076;13.722;2023-09-07T02:26:49;13.40;;;12.00;;
48263;SDS011;34086;51.076;13.722;2023-09-07T02:27:50;13.38;;;11.77;;
48263;SDS011;34086;51.076;13.722;2023-09-07T02:28:51;14.20;;;12.00;;
48263;SDS011;34086;51.076;13.722;2023-09-07T02:29:51;15.13;;;12.27;;
48263;SDS011;34086;51.076;13.722;2023-09-07T02:30:52;14.18;;;11.70;;
48263;SDS011;34086;51.076;13.722;2023-09-07T02:31:53;18.73;;;12.27;;
48263;SDS011;34086;51.076;13.722;2023-09-07T02:32:54;16.65;;;12.02;;
48263;SDS011;34086;51.076;13.722;2023-09-07T02:33:55;14.30;;;11.95;;
48263;SDS011;34086;51.076;13.722;2023-09-07T02:34:56;14.10;;;11.95;;
48263;SDS011;34086;51.076;13.722;2023-09-07T02:35:57;15.25;;;11.88;;
48263;SDS011;34086;51.076;13.722;2023-09-07T02:36:57;15.73;;;12.70;;
48263;SDS011;34086;51.076;13.722;2023-09-07T02:37:59;15.55;;;12.43;;
48263;SDS011;34086;51.076;13.722;2023-09-07T02:39:00;15.80;;;12.32;;
48263;SDS011;34086;51.076;13.722;2023-09-07T02:40:01;13.07;;;11.70;;
48263;SDS011;34086;51.076;13.722;2023-09-07T02:41:06;17.65;;;11.88;;
48263;SDS011;34086;51.076;13.722;2023-09-07T02:42:07;13.90;;;12.13;;
48263;SDS011;34086;51.076;13.722;2023-09-07T02:43:08;16.60;;;12.30;;
48263;SDS011;34086;51.076;13.722;2023-09-07T02:44:09;13.93;;;12.15;;
48263;SDS011;34086;51.076;13.722;2023-09-07T02:45:10;13.82;;;12.40;;
48263;SDS011;34086;51.076;13.722;2023-09-07T02:46:12;14.65;;;12.52;;
48263;SDS011;34086;51.076;13.722;2023-09-07T02:47:12;14.32;;;12.38;;
48263;SDS011;34086;51.076;13.722;2023-09-07T02:48:14;16.85;;;12.55;;
48263;SDS011;34086;51.076;13.722;2023-09-07T02:49:15;14.15;;;11.70;;
48263;SDS011;34086;51.076;13.722;2023-09-07T02:50:15;14.50;;;12.55;;
48263;SDS011;34086;51.076;13.722;2023-09-07T02:51:17;15.23;;;12.55;;
48263;SDS011;34086;51.076;13.722;2023-09-07T02:52:18;15.60;;;12.07;;
48263;SDS011;34086;51.076;13.722;2023-09-07T02:53:19;13.18;;;11.77;;
48263;SDS011;34086;51.076;13.722;2023-09-07T02:54:19;15.88;;;13.00;;
48263;SDS011;34086;51.076;13.722;2023-09-07T02:55:20;14.35;;;12.82;;
48263;SDS011;34086;51.076;13.722;2023-09-07T02:56:20;15.20;;;12.73;;
48263;SDS011;34086;51.076;13.722;2023-09-07T02:57:21;17.17;;;12.77;;
48263;SDS011;34086;51.076;13.722;2023-09-07T02:58:22;15.32;;;12.07;;
48263;SDS011;34086;51.076;13.722;2023-09-07T02:59:24;14.43;;;12.18;;
48263;SDS011;34086;51.076;13.722;2023-09-07T03:00:25;14.63;;;12.35;;
48263;SDS011;34086;51.076;13.722;2023-09-07T03:01:25;16.02;;;12.98;;
48263;SDS011;34086;51.076;13.722;2023-09-07T03:02:27;15.52;;;12.57;;
48263;SDS011;34086;51.076;13.722;2023-09-07T03:03:28;15.35;;;12.65;;
48263;SDS011;34086;51.076;13.722;2023-09-07T03:04:29;17.45;;;13.00;;
48263;SDS011;34086;51.076;13.722;2023-09-07T03:05:30;15.38;;;12.43;;
48263;SDS011;34086;51.076;13.722;2023-09-07T03:06:31;17.60;;;12.90;;
48263;SDS011;34086;51.076;13.722;2023-09-07T03:07:32;17.02;;;12.48;;
48263;SDS011;34086;51.076;13.722;2023-09-07T03:08:34;17.38;;;12.77;;
48263;SDS011;34086;51.076;13.722;2023-09-07T03:09:35;14.70;;;12.40;;
48263;SDS011;34086;51.076;13.722;2023-09-07T03:10:35;13.75;;;12.27;;
48263;SDS011;34086;51.076;13.722;2023-09-07T03:11:39;14.95;;;12.82;;
48263;SDS011;34086;51.076;13.722;2023-09-07T03:12:41;15.15;;;12.68;;
48263;SDS011;34086;51.076;13.722;2023-09-07T03:13:42;15.02;;;12.70;;
48263;SDS011;34086;51.076;13.722;2023-09-07T03:14:43;16.13;;;12.57;;
48263;SDS011;34086;51.076;13.722;2023-09-07T03:15:44;14.65;;;12.90;;
48263;SDS011;34086;51.076;13.722;2023-09-07T03:16:47;16.92;;;12.60;;
48263;SDS011;34086;51.076;13.722;2023-09-07T03:17:50;14.85;;;12.88;;
48263;SDS011;34086;51.076;13.722;2023-09-07T03:18:50;15.65;;;12.93;;
48263;SDS011;34086;51.076;13.722;2023-09-07T03:19:51;15.98;;;12.95;;
48263;SDS011;34086;51.076;13.722;2023-09-07T03:20:54;14.82;;;13.18;;
48263;SDS011;34086;51.076;13.722;2023-09-07T03:21:57;15.25;;;12.68;;
48263;SDS011;34086;51.076;13.722;2023-09-07T03:22:57;14.65;;;13.07;;
48263;SDS011;34086;51.076;13.722;2023-09-07T03:23:58;15.82;;;13.13;;
48263;SDS011;34086;51.076;13.722;2023-09-07T03:24:58;16.88;;;13.07;;
48263;SDS011;34086;51.076;13.722;2023-09-07T03:25:59;15.02;;;12.50;;
48263;SDS011;34086;51.076;13.722;2023-09-07T03:27:00;15.98;;;12.95;;
48263;SDS011;34086;51.076;13.722;2023-09-07T03:28:01;14.52;;;12.95;;
48263;SDS011;34086;51.076;13.722;2023-09-07T03:29:01;16.42;;;12.82;;
48263;SDS011;34086;51.076;13.722;2023-09-07T03:30:04;16.13;;;13.07;;
48263;SDS011;34086;51.076;13.722;2023-09-07T03:31:05;15.75;;;13.38;;
48263;SDS011;34086;51.076;13.722;2023-09-07T03:32:06;15.43;;;12.88;;
48263;SDS011;34086;51.076;13.722;2023-09-07T03:33:06;16.00;;;13.00;;
48263;SDS011;34086;51.076;13.722;2023-09-07T03:34:07;16.67;;;13.73;;
48263;SDS011;34086;51.076;13.722;2023-09-07T03:35:08;15.80;;;13.25;;
48263;SDS011;34086;51.076;13.722;2023-09-07T03:36:09;16.75;;;13.27;;
48263;SDS011;34086;51.076;13.722;2023-09-07T03:37:13;15.02;;;12.90;;
48263;SDS011;34086;51.076;13.722;2023-09-07T03:38:15;15.90;;;13.50;;
48263;SDS011;34086;51.076;13.722;2023-09-07T03:39:15;17.08;;;13.70;;
48263;SDS011;34086;51.076;13.722;2023-09-07T03:40:18;17.02;;;13.48;;
48263;SDS011;34086;51.076;13.722;2023-09-07T03:41:19;16.75;;;13.93;;
48263;SDS011;34086;51.076;13.722;2023-09-07T03:42:20;16.15;;;13.20;;
48263;SDS011;34086;51.076;13.722;2023-09-07T03:43:20;14.25;;;12.75;;
48263;SDS011;34086;51.076;13.722;2023-09-07T03:44:21;15.65;;;13.25;;
48263;SDS011;34086;51.076;13.722;2023-09-07T03:45:22;17.27;;;13.40;;
48263;SDS011;34086;51.076;13.722;2023-09-07T03:46:22;16.58;;;13.48;;
48263;SDS011;34086;51.076;13.722;2023-09-07T03:47:23;15.25;;;13.30;;
48263;SDS011;34086;51.076;13.722;2023-09-07T03:48:29;16.48;;;13.07;;
48263;SDS011;34086;51.076;13.722;2023-09-07T03:49:29;18.00;;;13.98;;
48263;SDS011;34086;51.076;13.722;2023-09-07T03:50:30;16.65;;;13.20;;
48263;SDS011;34086;51.076;13.722;2023-09-07T03:51:30;16.35;;;13.13;;
48263;SDS011;34086;51.076;13.722;2023-09-07T03:52:31;16.90;;;13.70;;
48263;SDS011;34086;51.076;13.722;2023-09-07T03:53:34;16.02;;;13.32;;
48263;SDS011;34086;51.076;13.722;2023-09-07T03:54:34;14.65;;;13.00;;
48263;SDS011;34086;51.076;13.722;2023-09-07T03:55:42;14.98;;;13.13;;
48263;SDS011;34086;51.076;13.722;2023-09-07T03:56:45;17.92;;;14.30;;
48263;SDS011;34086;51.076;13.722;2023-09-07T03:57:45;16.10;;;13.57;;
48263;SDS011;34086;51.076;13.722;2023-09-07T03:58:46;16.98;;;13.20;;
48263;SDS011;34086;51.076;13.722;2023-09-07T03:59:50;17.15;;;13.90;;
48263;SDS011;34086;51.076;13.722;2023-09-07T04:00:50;15.70;;;12.88;;
48263;SDS011;34086;51.076;13.722;2023-09-07T04:01:51;18.02;;;13.52;;
48263;SDS011;34086;51.076;13.722;2023-09-07T04:02:53;16.48;;;13.35;;
48263;SDS011;34086;51.076;13.722;2023-09-07T04:03:56;15.45;;;13.48;;
48263;SDS011;34086;51.076;13.722;2023-09-07T04:04:56;17.10;;;13.35;;
48263;SDS011;34086;51.076;13.722;2023-09-07T04:05:57;17.08;;;13.18;;
48263;SDS011;34086;51.076;13.722;2023-09-07T04:06:58;17.55;;;13.60;;
48263;SDS011;34086;51.076;13.722;2023-09-07T04:07:58;17.13;;;13.52;;
48263;SDS011;34086;51.076;13.722;2023-09-07T04:09:00;20.88;;;13.88;;
48263;SDS011;34086;51.076;13.722;2023-09-07T04:10:01;20.65;;;14.10;;
48263;SDS011;34086;51.076;13.722;2023-09-07T04:11:05;18.73;;;13.38;;
48263;SDS011;34086;51.076;13.722;2023-09-07T04:12:05;17.83;;;12.82;;
48263;SDS011;34086;51.076;13.722;2023-09-07T04:13:07;18.50;;;14.10;;
48263;SDS011;34086;51.076;13.722;2023-09-07T04:14:09;16.65;;;13.35;;
48263;SDS011;34086;51.076;13.722;2023-09-07T04:15:10;16.98;;;14.10;;
48263;SDS011;34086;51.076;13.722;2023-09-07T04:16:11;20.55;;;14.48;;
48263;SDS011;34086;51.076;13.722;2023-09-07T04:17:11;16.92;;;13.25;;
48263;SDS011;34086;51.076;13.722;2023-09-07T04:18:12;20.05;;;13.68;;
48263;SDS011;34086;51.076;13.722;2023-09-07T04:19:15;19.17;;;13.65;;
48263;SDS011;34086;51.076;13.722;2023-09-07T04:20:16;18.45;;;13.80;;
48263;SDS011;34086;51.076;13.722;2023-09-07T04:21:17;17.08;;;13.35;;
48263;SDS011;34086;51.076;13.722;2023-09-07T04:22:18;22.48;;;13.70;;
48263;SDS011;34086;51.076;13.722;2023-09-07T04:23:18;19.90;;;13.32;;
48263;SDS011;34086;51.076;13.722;2023-09-07T04:24:19;21.83;;;13.40;;
48263;SDS011;34086;51.076;13.722;2023-09-07T04:25:20;19.98;;;13.05;;
48263;SDS011;34086;51.076;13.722;2023-09-07T04:26:21;18.83;;;13.98;;
48263;SDS011;34086;51.076;13.722;2023-09-07T04:27:21;16.42;;;13.45;;
48263;SDS011;34086;51.076;13.722;2023-09-07T04:28:22;17.00;;;13.23;;
48263;SDS011;34086;51.076;13.722;2023-09-07T04:29:23;21.25;;;13.75;;
48263;SDS011;34086;51.076;13.722;2023-09-07T04:30:23;20.05;;;13.85;;
48263;SDS011;34086;51.076;13.722;2023-09-07T04:31:24;19.45;;;13.70;;
48263;SDS011;34086;51.076;13.722;2023-09-07T04:32:27;19.52;;;13.55;;
48263;SDS011;34086;51.076;13.722;2023-09-07T04:33:34;16.67;;;13.73;;
48263;SDS011;34086;51.076;13.722;2023-09-07T04:34:36;18.35;;;13.75;;
48263;SDS011;34086;51.076;13.722;2023-09-07T04:35:36;15.98;;;13.55;;
48263;SDS011;34086;51.076;13.722;2023-09-07T04:36:37;18.00;;;13.90;;
48263;SDS011;34086;51.076;13.722;2023-09-07T04:37:37;18.75;;;14.25;;
48263;SDS011;34086;51.076;13.722;2023-09-07T04:38:38;16.83;;;13.68;;
48263;SDS011;34086;51.076;13.722;2023-09-07T04:39:40;16.15;;;13.48;;
48263;SDS011;34086;51.076;13.722;2023-09-07T04:40:40;18.45;;;13.40;;
48263;SDS011;34086;51.076;13.722;2023-09-07T04:41:41;17.17;;;13.10;;
48263;SDS011;34086;51.076;13.722;2023-09-07T04:42:42;18.73;;;13.73;;
48263;SDS011;34086;51.076;13.722;2023-09-07T04:43:42;18.60;;;13.95;;
48263;SDS011;34086;51.076;13.722;2023-09-07T04:44:43;16.92;;;13.32;;
48263;SDS011;34086;51.076;13.722;2023-09-07T04:45:47;16.55;;;13.57;;
48263;SDS011;34086;51.076;13.722;2023-09-07T04:46:47;18.48;;;13.10;;
48263;SDS011;34086;51.076;13.722;2023-09-07T04:47:49;17.95;;;13.98;;
48263;SDS011;34086;51.076;13.722;2023-09-07T04:48:50;19.00;;;13.07;;
48263;SDS011;34086;51.076;13.722;2023-09-07T04:49:52;17.27;;;13.35;;
48263;SDS011;34086;51.076;13.722;2023-09-07T04:50:58;20.00;;;13.32;;
48263;SDS011;34086;51.076;13.722;2023-09-07T04:52:03;19.48;;;13.77;;
48263;SDS011;34086;51.076;13.722;2023-09-07T04:53:04;19.77;;;13.52;;
48263;SDS011;34086;51.076;13.722;2023-09-07T04:54:05;20.30;;;13.93;;
48263;SDS011;34086;51.076;13.722;2023-09-07T04:55:06;16.33;;;13.50;;
48263;SDS011;34086;51.076;13.722;2023-09-07T04:56:08;22.17;;;13.50;;
48263;SDS011;34086;51.076;13.722;2023-09-07T04:57:09;18.02;;;13.70;;
48263;SDS011;34086;51.076;13.722;2023-09-07T04:58:09;19.83;;;13.70;;
48263;SDS011;34086;51.076;13.722;2023-09-07T04:59:10;17.55;;;13.45;;
48263;SDS011;34086;51.076;13.722;2023-09-07T05:00:10;19.08;;;13.38;;
48263;SDS011;34086;51.076;13.722;2023-09-07T05:01:12;16.75;;;13.70;;
48263;SDS011;34086;51.076;13.722;2023-09-07T05:02:13;19.35;;;13.85;;
48263;SDS011;34086;51.076;13.722;2023-09-07T05:03:14;16.88;;;13.43;;
48263;SDS011;34086;51.076;13.722;2023-09-07T05:04:15;18.35;;;13.02;;
48263;SDS011;34086;51.076;13.722;2023-09-07T05:05:15;16.75;;;12.85;;
48263;SDS011;34086;51.076;13.722;2023-09-07T05:06:16;17.48;;;13.20;;
48263;SDS011;34086;51.076;13.722;2023-09-07T05:07:17;18.30;;;13.18;;
48263;SDS011;34086;51.076;13.722;2023-09-07T05:08:17;18.10;;;12.77;;
48263;SDS011;34086;51.076;13.722;2023-09-07T05:09:18;16.30;;;12.48;;
48263;SDS011;34086;51.076;13.722;2023-09-07T05:10:20;18.65;;;12.57;;
48263;SDS011;34086;51.076;13.722;2023-09-07T05:11:21;18.35;;;11.68;;
48263;SDS011;34086;51.076;13.722;2023-09-07T05:12:22;17.27;;;11.93;;
48263;SDS011;34086;51.076;13.722;2023-09-07T05:13:23;15.07;;;11.85;;
48263;SDS011;34086;51.076;13.722;2023-09-07T05:14:25;15.48;;;11.75;;
48263;SDS011;34086;51.076;13.722;2023-09-07T05:15:26;16.88;;;11.38;;
48263;SDS011;34086;51.076;13.722;2023-09-07T05:16:27;20.52;;;11.38;;
48263;SDS011;34086;51.076;13.722;2023-09-07T05:17:28;14.98;;;11.57;;
48263;SDS011;34086;51.076;13.722;2023-09-07T05:18:28;19.08;;;11.07;;
48263;SDS011;34086;51.076;13.722;2023-09-07T05:19:30;22.02;;;11.63;;
48263;SDS011;34086;51.076;13.722;2023-09-07T05:20:30;18.27;;;12.15;;
48263;SDS011;34086;51.076;13.722;2023-09-07T05:21:31;17.92;;;11.15;;
48263;SDS011;34086;51.076;13.722;2023-09-07T05:22:32;18.38;;;11.48;;
48263;SDS011;34086;51.076;13.722;2023-09-07T05:23:36;16.30;;;11.05;;
48263;SDS011;34086;51.076;13.722;2023-09-07T05:24:37;22.33;;;11.55;;
48263;SDS011;34086;51.076;13.722;2023-09-07T05:25:48;19.63;;;11.52;;
48263;SDS011;34086;51.076;13.722;2023-09-07T05:26:52;15.88;;;11.13;;
48263;SDS011;34086;51.076;13.722;2023-09-07T05:27:52;18.83;;;11.90;;
48263;SDS011;34086;51.076;13.722;2023-09-07T05:28:53;17.98;;;11.20;;
48263;SDS011;34086;51.076;13.722;2023-09-07T05:29:54;17.92;;;12.07;;
48263;SDS011;34086;51.076;13.722;2023-09-07T05:30:54;19.20;;;11.45;;
48263;SDS011;34086;51.076;13.722;2023-09-07T05:31:57;17.35;;;12.00;;
48263;SDS011;34086;51.076;13.722;2023-09-07T05:32:58;16.25;;;11.88;;
48263;SDS011;34086;51.076;13.722;2023-09-07T05:33:58;15.98;;;11.82;;
48263;SDS011;34086;51.076;13.722;2023-09-07T05:35:00;17.23;;;12.20;;
48263;SDS011;34086;51.076;13.722;2023-09-07T05:36:01;17.10;;;12.00;;
48263;SDS011;34086;51.076;13.722;2023-09-07T05:37:02;14.38;;;11.88;;
48263;SDS011;34086;51.076;13.722;2023-09-07T05:38:04;17.63;;;12.35;;
48263;SDS011;34086;51.076;13.722;2023-09-07T05:39:05;16.25;;;11.85;;
48263;SDS011;34086;51.076;13.722;2023-09-07T05:40:06;16.20;;;12.43;;
48263;SDS011;34086;51.076;13.722;2023-09-07T05:41:07;19.42;;;12.68;;
48263;SDS011;34086;51.076;13.722;2023-09-07T05:42:08;21.42;;;12.60;;
48263;SDS011;34086;51.076;13.722;2023-09-07T05:43:08;16.15;;;12.38;;
48263;SDS011;34086;51.076;13.722;2023-09-07T05:44:11;15.63;;;12.40;;
48263;SDS011;34086;51.076;13.722;2023-09-07T05:45:11;20.38;;;13.23;;
48263;SDS011;34086;51.076;13.722;2023-09-07T05:46:12;16.00;;;12.73;;
48263;SDS011;34086;51.076;13.722;2023-09-07T05:47:12;14.68;;;12.13;;
48263;SDS011;34086;51.076;13.722;2023-09-07T05:48:13;16.20;;;12.57;;
48263;SDS011;34086;51.076;13.722;2023-09-07T05:49:17;14.45;;;12.35;;
48263;SDS011;34086;51.076;13.722;2023-09-07T05:50:17;13.60;;;12.05;;
48263;SDS011;34086;51.076;13.722;2023-09-07T05:51:18;16.55;;;12.50;;
48263;SDS011;34086;51.076;13.722;2023-09-07T05:52:19;17.10;;;12.70;;
48263;SDS011;34086;51.076;13.722;2023-09-07T05:53:19;14.70;;;12.27;;
48263;SDS011;34086;51.076;13.722;2023-09-07T05:54:21;15.07;;;11.50;;
48263;SDS011;34086;51.076;13.722;2023-09-07T05:55:21;16.60;;;11.65;;